sensor_id;sensor_type;location;lat;lon;timestamp;P1;durP1;ratioP1;P2;durP2;ratioP2
21802;SDS011;18591;47.080;22.214;2023-02-11T00:00:54;69.57;;;36.17;;
21802;SDS011;18591;47.080;22.214;2023-02-11T00:02:56;63.80;;;34.60;;
21802;SDS011;18591;47.080;22.214;2023-02-11T00:04:59;51.83;;;27.57;;
21802;SDS011;18591;47.080;22.214;2023-02-11T00:07:03;52.73;;;28.97;;
21802;SDS011;18591;47.080;22.214;2023-02-11T00:09:05;53.23;;;28.97;;
21802;SDS011;18591;47.080;22.214;2023-02-11T00:11:09;59.53;;;31.70;;
21802;SDS011;18591;47.080;22.214;2023-02-11T00:13:14;51.93;;;30.77;;
21802;SDS011;18591;47.080;22.214;2023-02-11T00:15:16;60.87;;;32.17;;
21802;SDS011;18591;47.080;22.214;2023-02-11T00:17:18;53.10;;;31.27;;
21802;SDS011;18591;47.080;22.214;2023-02-11T00:19:21;46.80;;;26.60;;
21802;SDS011;18591;47.080;22.214;2023-02-11T00:21:24;46.37;;;26.30;;
21802;SDS011;18591;47.080;22.214;2023-02-11T00:23:27;49.17;;;27.20;;
21802;SDS011;18591;47.080;22.214;2023-02-11T00:25:29;48.50;;;26.00;;
21802;SDS011;18591;47.080;22.214;2023-02-11T00:27:31;51.10;;;28.00;;
21802;SDS011;18591;47.080;22.214;2023-02-11T00:29:37;45.97;;;25.60;;
21802;SDS011;18591;47.080;22.214;2023-02-11T00:31:39;46.93;;;26.43;;
21802;SDS011;18591;47.080;22.214;2023-02-11T00:33:42;47.20;;;26.63;;
21802;SDS011;18591;47.080;22.214;2023-02-11T00:35:44;46.10;;;26.10;;
21802;SDS011;18591;47.080;22.214;2023-02-11T00:37:47;45.27;;;25.83;;
21802;SDS011;18591;47.080;22.214;2023-02-11T00:39:49;45.43;;;23.77;;
21802;SDS011;18591;47.080;22.214;2023-02-11T00:41:51;42.67;;;24.37;;
21802;SDS011;18591;47.080;22.214;2023-02-11T00:43:53;40.80;;;21.90;;
21802;SDS011;18591;47.080;22.214;2023-02-11T00:45:55;42.60;;;24.00;;
21802;SDS011;18591;47.080;22.214;2023-02-11T00:47:58;47.23;;;25.00;;
21802;SDS011;18591;47.080;22.214;2023-02-11T00:50:02;41.97;;;23.43;;
21802;SDS011;18591;47.080;22.214;2023-02-11T00:52:05;40.20;;;23.07;;
21802;SDS011;18591;47.080;22.214;2023-02-11T00:54:08;44.37;;;23.20;;
21802;SDS011;18591;47.080;22.214;2023-02-11T00:56:12;35.40;;;21.13;;
21802;SDS011;18591;47.080;22.214;2023-02-11T00:58:17;39.57;;;21.70;;
21802;SDS011;18591;47.080;22.214;2023-02-11T01:00:19;37.70;;;21.60;;
21802;SDS011;18591;47.080;22.214;2023-02-11T01:02:25;39.53;;;20.20;;
21802;SDS011;18591;47.080;22.214;2023-02-11T01:04:28;42.50;;;22.87;;
21802;SDS011;18591;47.080;22.214;2023-02-11T01:06:30;38.40;;;21.53;;
21802;SDS011;18591;47.080;22.214;2023-02-11T01:08:32;34.53;;;18.60;;
21802;SDS011;18591;47.080;22.214;2023-02-11T01:10:34;41.00;;;20.93;;
21802;SDS011;18591;47.080;22.214;2023-02-11T01:12:37;39.47;;;22.07;;
21802;SDS011;18591;47.080;22.214;2023-02-11T01:14:39;37.77;;;20.73;;
21802;SDS011;18591;47.080;22.214;2023-02-11T01:16:42;36.70;;;21.10;;
21802;SDS011;18591;47.080;22.214;2023-02-11T01:18:47;35.47;;;19.73;;
21802;SDS011;18591;47.080;22.214;2023-02-11T01:20:51;34.50;;;18.97;;
21802;SDS011;18591;47.080;22.214;2023-02-11T01:22:54;33.47;;;19.03;;
21802;SDS011;18591;47.080;22.214;2023-02-11T01:24:56;32.20;;;19.03;;
21802;SDS011;18591;47.080;22.214;2023-02-11T01:26:58;35.43;;;17.60;;
21802;SDS011;18591;47.080;22.214;2023-02-11T01:29:00;36.00;;;20.10;;
21802;SDS011;18591;47.080;22.214;2023-02-11T01:31:03;33.73;;;18.53;;
21802;SDS011;18591;47.080;22.214;2023-02-11T01:33:06;35.10;;;19.43;;
21802;SDS011;18591;47.080;22.214;2023-02-11T01:35:10;39.30;;;21.90;;
21802;SDS011;18591;47.080;22.214;2023-02-11T01:37:12;39.03;;;21.60;;
21802;SDS011;18591;47.080;22.214;2023-02-11T01:39:14;42.70;;;21.73;;
21802;SDS011;18591;47.080;22.214;2023-02-11T01:41:20;39.10;;;21.47;;
21802;SDS011;18591;47.080;22.214;2023-02-11T01:43:23;37.50;;;21.23;;
21802;SDS011;18591;47.080;22.214;2023-02-11T01:48:05;38.87;;;21.93;;
21802;SDS011;18591;47.080;22.214;2023-02-11T01:50:08;38.30;;;20.73;;
21802;SDS011;18591;47.080;22.214;2023-02-11T01:54:44;34.13;;;20.03;;
21802;SDS011;18591;47.080;22.214;2023-02-11T01:57:12;36.83;;;20.33;;
21802;SDS011;18591;47.080;22.214;2023-02-11T01:59:29;37.30;;;20.27;;
21802;SDS011;18591;47.080;22.214;2023-02-11T02:01:35;38.10;;;20.20;;
21802;SDS011;18591;47.080;22.214;2023-02-11T02:03:41;37.07;;;21.33;;
21802;SDS011;18591;47.080;22.214;2023-02-11T02:10:24;37.63;;;22.07;;
21802;SDS011;18591;47.080;22.214;2023-02-11T02:12:29;43.57;;;22.67;;
21802;SDS011;18591;47.080;22.214;2023-02-11T02:14:31;41.80;;;23.20;;
21802;SDS011;18591;47.080;22.214;2023-02-11T02:16:34;42.87;;;20.70;;
21802;SDS011;18591;47.080;22.214;2023-02-11T02:23:37;44.47;;;23.27;;
21802;SDS011;18591;47.080;22.214;2023-02-11T02:28:18;40.53;;;21.67;;
21802;SDS011;18591;47.080;22.214;2023-02-11T02:30:49;35.83;;;19.33;;
21802;SDS011;18591;47.080;22.214;2023-02-11T02:33:11;36.17;;;19.97;;
21802;SDS011;18591;47.080;22.214;2023-02-11T02:37:42;35.03;;;19.33;;
21802;SDS011;18591;47.080;22.214;2023-02-11T02:39:48;38.13;;;20.00;;
21802;SDS011;18591;47.080;22.214;2023-02-11T02:41:51;39.23;;;19.60;;
21802;SDS011;18591;47.080;22.214;2023-02-11T02:43:55;35.40;;;20.60;;
21802;SDS011;18591;47.080;22.214;2023-02-11T02:48:26;39.83;;;20.60;;
21802;SDS011;18591;47.080;22.214;2023-02-11T02:50:35;38.33;;;21.07;;
21802;SDS011;18591;47.080;22.214;2023-02-11T03:04:21;38.23;;;20.67;;
21802;SDS011;18591;47.080;22.214;2023-02-11T03:06:29;37.87;;;21.07;;
21802;SDS011;18591;47.080;22.214;2023-02-11T03:08:37;39.23;;;20.80;;
21802;SDS011;18591;47.080;22.214;2023-02-11T03:10:48;40.17;;;20.97;;
21802;SDS011;18591;47.080;22.214;2023-02-11T03:12:52;35.97;;;21.10;;
21802;SDS011;18591;47.080;22.214;2023-02-11T03:15:03;35.47;;;19.57;;
21802;SDS011;18591;47.080;22.214;2023-02-11T03:17:07;41.50;;;21.07;;
21802;SDS011;18591;47.080;22.214;2023-02-11T03:19:21;37.97;;;18.70;;
21802;SDS011;18591;47.080;22.214;2023-02-11T03:21:29;32.53;;;18.93;;
21802;SDS011;18591;47.080;22.214;2023-02-11T03:23:39;31.73;;;16.07;;
21802;SDS011;18591;47.080;22.214;2023-02-11T03:25:49;33.07;;;17.40;;
21802;SDS011;18591;47.080;22.214;2023-02-11T03:28:32;28.90;;;16.60;;
21802;SDS011;18591;47.080;22.214;2023-02-11T03:30:42;32.73;;;15.43;;
21802;SDS011;18591;47.080;22.214;2023-02-11T03:32:55;26.40;;;14.53;;
21802;SDS011;18591;47.080;22.214;2023-02-11T03:37:23;31.97;;;16.73;;
21802;SDS011;18591;47.080;22.214;2023-02-11T03:39:34;30.50;;;16.43;;
21802;SDS011;18591;47.080;22.214;2023-02-11T03:41:40;33.17;;;18.17;;
21802;SDS011;18591;47.080;22.214;2023-02-11T03:43:44;34.00;;;17.20;;
21802;SDS011;18591;47.080;22.214;2023-02-11T03:45:51;32.50;;;18.17;;
21802;SDS011;18591;47.080;22.214;2023-02-11T03:48:00;32.07;;;16.93;;
21802;SDS011;18591;47.080;22.214;2023-02-11T03:50:07;32.67;;;19.17;;
21802;SDS011;18591;47.080;22.214;2023-02-11T03:52:11;37.70;;;18.57;;
21802;SDS011;18591;47.080;22.214;2023-02-11T03:54:18;32.83;;;17.93;;
21802;SDS011;18591;47.080;22.214;2023-02-11T03:56:25;31.30;;;17.20;;
21802;SDS011;18591;47.080;22.214;2023-02-11T03:58:31;28.73;;;17.27;;
21802;SDS011;18591;47.080;22.214;2023-02-11T04:00:34;32.10;;;18.13;;
21802;SDS011;18591;47.080;22.214;2023-02-11T04:02:40;31.90;;;18.03;;
21802;SDS011;18591;47.080;22.214;2023-02-11T04:04:43;34.60;;;19.87;;
21802;SDS011;18591;47.080;22.214;2023-02-11T04:06:46;35.47;;;18.77;;
21802;SDS011;18591;47.080;22.214;2023-02-11T04:08:48;40.83;;;20.93;;
21802;SDS011;18591;47.080;22.214;2023-02-11T04:10:50;35.90;;;19.80;;
21802;SDS011;18591;47.080;22.214;2023-02-11T04:12:52;40.73;;;20.40;;
21802;SDS011;18591;47.080;22.214;2023-02-11T04:14:56;41.43;;;20.27;;
21802;SDS011;18591;47.080;22.214;2023-02-11T04:16:58;40.67;;;20.93;;
21802;SDS011;18591;47.080;22.214;2023-02-11T04:19:01;45.83;;;22.67;;
21802;SDS011;18591;47.080;22.214;2023-02-11T04:21:03;39.80;;;20.33;;
21802;SDS011;18591;47.080;22.214;2023-02-11T04:23:05;40.60;;;20.47;;
21802;SDS011;18591;47.080;22.214;2023-02-11T04:25:07;44.07;;;21.33;;
21802;SDS011;18591;47.080;22.214;2023-02-11T04:27:10;40.70;;;20.87;;
21802;SDS011;18591;47.080;22.214;2023-02-11T04:29:13;50.63;;;24.00;;
21802;SDS011;18591;47.080;22.214;2023-02-11T04:31:15;42.23;;;22.93;;
21802;SDS011;18591;47.080;22.214;2023-02-11T04:33:17;102.57;;;43.33;;
21802;SDS011;18591;47.080;22.214;2023-02-11T04:35:20;111.30;;;51.67;;
21802;SDS011;18591;47.080;22.214;2023-02-11T04:37:22;84.10;;;41.90;;
21802;SDS011;18591;47.080;22.214;2023-02-11T04:39:24;67.20;;;34.17;;
21802;SDS011;18591;47.080;22.214;2023-02-11T04:41:26;65.10;;;33.30;;
21802;SDS011;18591;47.080;22.214;2023-02-11T04:43:28;100.60;;;53.60;;
21802;SDS011;18591;47.080;22.214;2023-02-11T04:45:31;75.50;;;43.47;;
21802;SDS011;18591;47.080;22.214;2023-02-11T04:47:34;59.40;;;31.60;;
21802;SDS011;18591;47.080;22.214;2023-02-11T04:49:36;73.97;;;36.93;;
21802;SDS011;18591;47.080;22.214;2023-02-11T04:51:40;55.13;;;29.30;;
21802;SDS011;18591;47.080;22.214;2023-02-11T04:53:43;66.37;;;34.70;;
21802;SDS011;18591;47.080;22.214;2023-02-11T04:55:49;54.17;;;30.70;;
21802;SDS011;18591;47.080;22.214;2023-02-11T04:57:52;50.10;;;28.17;;
21802;SDS011;18591;47.080;22.214;2023-02-11T04:59:55;55.27;;;30.30;;
21802;SDS011;18591;47.080;22.214;2023-02-11T05:01:57;82.33;;;40.47;;
21802;SDS011;18591;47.080;22.214;2023-02-11T05:04:00;66.77;;;35.67;;
21802;SDS011;18591;47.080;22.214;2023-02-11T05:06:02;53.57;;;28.83;;
21802;SDS011;18591;47.080;22.214;2023-02-11T05:08:08;54.60;;;28.93;;
21802;SDS011;18591;47.080;22.214;2023-02-11T05:10:11;50.93;;;26.57;;
21802;SDS011;18591;47.080;22.214;2023-02-11T05:12:13;48.80;;;28.07;;
21802;SDS011;18591;47.080;22.214;2023-02-11T05:14:16;59.43;;;32.27;;
21802;SDS011;18591;47.080;22.214;2023-02-11T05:16:18;71.07;;;36.47;;
21802;SDS011;18591;47.080;22.214;2023-02-11T05:18:20;72.57;;;38.47;;
21802;SDS011;18591;47.080;22.214;2023-02-11T05:20:22;68.13;;;35.53;;
21802;SDS011;18591;47.080;22.214;2023-02-11T05:22:27;62.87;;;35.43;;
21802;SDS011;18591;47.080;22.214;2023-02-11T05:24:32;58.53;;;31.50;;
21802;SDS011;18591;47.080;22.214;2023-02-11T05:26:34;60.57;;;33.87;;
21802;SDS011;18591;47.080;22.214;2023-02-11T05:28:37;69.27;;;35.47;;
21802;SDS011;18591;47.080;22.214;2023-02-11T05:30:40;65.93;;;34.63;;
21802;SDS011;18591;47.080;22.214;2023-02-11T05:32:42;71.03;;;34.73;;
21802;SDS011;18591;47.080;22.214;2023-02-11T05:34:44;81.87;;;39.47;;
21802;SDS011;18591;47.080;22.214;2023-02-11T05:36:46;107.57;;;47.37;;
21802;SDS011;18591;47.080;22.214;2023-02-11T05:38:48;90.67;;;42.17;;
21802;SDS011;18591;47.080;22.214;2023-02-11T05:40:51;75.63;;;37.67;;
21802;SDS011;18591;47.080;22.214;2023-02-11T05:42:54;81.03;;;41.93;;
21802;SDS011;18591;47.080;22.214;2023-02-11T05:44:56;75.40;;;40.17;;
21802;SDS011;18591;47.080;22.214;2023-02-11T05:46:58;65.87;;;35.13;;
21802;SDS011;18591;47.080;22.214;2023-02-11T05:49:00;67.97;;;35.13;;
21802;SDS011;18591;47.080;22.214;2023-02-11T05:51:03;108.37;;;55.50;;
21802;SDS011;18591;47.080;22.214;2023-02-11T05:53:08;179.13;;;86.47;;
21802;SDS011;18591;47.080;22.214;2023-02-11T05:55:10;134.50;;;66.57;;
21802;SDS011;18591;47.080;22.214;2023-02-11T05:57:15;97.10;;;48.37;;
21802;SDS011;18591;47.080;22.214;2023-02-11T05:59:17;57.63;;;31.67;;
21802;SDS011;18591;47.080;22.214;2023-02-11T06:01:20;43.20;;;23.77;;
21802;SDS011;18591;47.080;22.214;2023-02-11T06:03:23;40.53;;;22.93;;
21802;SDS011;18591;47.080;22.214;2023-02-11T06:05:25;56.53;;;28.67;;
21802;SDS011;18591;47.080;22.214;2023-02-11T06:07:28;63.17;;;34.00;;
21802;SDS011;18591;47.080;22.214;2023-02-11T06:09:30;59.93;;;33.73;;
21802;SDS011;18591;47.080;22.214;2023-02-11T06:11:32;66.97;;;36.23;;
21802;SDS011;18591;47.080;22.214;2023-02-11T06:13:35;89.17;;;45.60;;
21802;SDS011;18591;47.080;22.214;2023-02-11T06:15:37;70.20;;;35.67;;
21802;SDS011;18591;47.080;22.214;2023-02-11T06:17:40;70.87;;;38.47;;
21802;SDS011;18591;47.080;22.214;2023-02-11T06:19:42;66.10;;;35.27;;
21802;SDS011;18591;47.080;22.214;2023-02-11T06:21:44;94.73;;;46.77;;
21802;SDS011;18591;47.080;22.214;2023-02-11T06:23:46;101.07;;;51.23;;
21802;SDS011;18591;47.080;22.214;2023-02-11T06:25:50;81.87;;;44.43;;
21802;SDS011;18591;47.080;22.214;2023-02-11T06:27:53;82.87;;;44.03;;
21802;SDS011;18591;47.080;22.214;2023-02-11T06:29:55;84.50;;;44.10;;
21802;SDS011;18591;47.080;22.214;2023-02-11T06:31:58;94.27;;;46.43;;
21802;SDS011;18591;47.080;22.214;2023-02-11T06:34:00;87.37;;;46.60;;
21802;SDS011;18591;47.080;22.214;2023-02-11T06:36:03;82.20;;;44.23;;
21802;SDS011;18591;47.080;22.214;2023-02-11T06:38:12;71.63;;;38.30;;
21802;SDS011;18591;47.080;22.214;2023-02-11T06:40:14;59.43;;;35.93;;
21802;SDS011;18591;47.080;22.214;2023-02-11T06:42:17;60.60;;;34.20;;
21802;SDS011;18591;47.080;22.214;2023-02-11T06:44:19;64.17;;;37.67;;
21802;SDS011;18591;47.080;22.214;2023-02-11T06:46:24;58.73;;;35.63;;
21802;SDS011;18591;47.080;22.214;2023-02-11T06:48:26;51.83;;;32.90;;
21802;SDS011;18591;47.080;22.214;2023-02-11T06:50:28;65.13;;;40.47;;
21802;SDS011;18591;47.080;22.214;2023-02-11T06:52:31;74.93;;;41.90;;
21802;SDS011;18591;47.080;22.214;2023-02-11T06:54:33;58.07;;;34.63;;
21802;SDS011;18591;47.080;22.214;2023-02-11T06:56:37;55.43;;;30.93;;
21802;SDS011;18591;47.080;22.214;2023-02-11T06:58:41;53.23;;;30.27;;
21802;SDS011;18591;47.080;22.214;2023-02-11T07:00:43;45.63;;;27.97;;
21802;SDS011;18591;47.080;22.214;2023-02-11T07:02:51;49.50;;;27.50;;
21802;SDS011;18591;47.080;22.214;2023-02-11T07:04:53;50.83;;;29.17;;
21802;SDS011;18591;47.080;22.214;2023-02-11T07:06:55;48.23;;;28.97;;
21802;SDS011;18591;47.080;22.214;2023-02-11T07:08:57;56.50;;;31.03;;
21802;SDS011;18591;47.080;22.214;2023-02-11T07:10:59;54.10;;;30.53;;
21802;SDS011;18591;47.080;22.214;2023-02-11T07:13:02;54.37;;;30.60;;
21802;SDS011;18591;47.080;22.214;2023-02-11T07:15:04;54.90;;;31.43;;
21802;SDS011;18591;47.080;22.214;2023-02-11T07:17:07;46.97;;;27.83;;
21802;SDS011;18591;47.080;22.214;2023-02-11T07:19:09;66.97;;;29.43;;
21802;SDS011;18591;47.080;22.214;2023-02-11T07:21:12;58.60;;;31.67;;
21802;SDS011;18591;47.080;22.214;2023-02-11T07:23:18;60.80;;;33.90;;
21802;SDS011;18591;47.080;22.214;2023-02-11T07:25:23;68.43;;;37.07;;
21802;SDS011;18591;47.080;22.214;2023-02-11T07:27:25;61.80;;;33.43;;
21802;SDS011;18591;47.080;22.214;2023-02-11T07:29:27;58.40;;;32.13;;
21802;SDS011;18591;47.080;22.214;2023-02-11T07:31:29;57.10;;;32.50;;
21802;SDS011;18591;47.080;22.214;2023-02-11T07:33:32;58.33;;;34.00;;
21802;SDS011;18591;47.080;22.214;2023-02-11T07:35:35;59.20;;;34.93;;
21802;SDS011;18591;47.080;22.214;2023-02-11T07:37:37;51.20;;;31.73;;
21802;SDS011;18591;47.080;22.214;2023-02-11T07:39:39;50.17;;;30.70;;
21802;SDS011;18591;47.080;22.214;2023-02-11T07:41:44;52.30;;;32.00;;
21802;SDS011;18591;47.080;22.214;2023-02-11T07:43:50;53.33;;;30.93;;
21802;SDS011;18591;47.080;22.214;2023-02-11T07:45:53;48.87;;;27.03;;
21802;SDS011;18591;47.080;22.214;2023-02-11T07:47:55;56.40;;;31.07;;
21802;SDS011;18591;47.080;22.214;2023-02-11T07:49:57;55.37;;;31.67;;
21802;SDS011;18591;47.080;22.214;2023-02-11T07:52:00;100.17;;;56.23;;
21802;SDS011;18591;47.080;22.214;2023-02-11T07:54:02;147.13;;;77.87;;
21802;SDS011;18591;47.080;22.214;2023-02-11T07:56:05;74.50;;;44.27;;
21802;SDS011;18591;47.080;22.214;2023-02-11T07:58:08;73.83;;;43.33;;
21802;SDS011;18591;47.080;22.214;2023-02-11T08:00:11;68.73;;;37.47;;
21802;SDS011;18591;47.080;22.214;2023-02-11T08:02:14;57.53;;;32.37;;
21802;SDS011;18591;47.080;22.214;2023-02-11T08:04:17;43.57;;;26.93;;
21802;SDS011;18591;47.080;22.214;2023-02-11T08:06:20;45.93;;;28.07;;
21802;SDS011;18591;47.080;22.214;2023-02-11T08:08:26;39.03;;;22.50;;
21802;SDS011;18591;47.080;22.214;2023-02-11T08:10:28;38.07;;;23.40;;
21802;SDS011;18591;47.080;22.214;2023-02-11T08:12:31;51.07;;;30.20;;
21802;SDS011;18591;47.080;22.214;2023-02-11T08:14:33;44.03;;;25.33;;
21802;SDS011;18591;47.080;22.214;2023-02-11T08:16:36;55.53;;;32.23;;
21802;SDS011;18591;47.080;22.214;2023-02-11T08:18:39;50.83;;;30.93;;
21802;SDS011;18591;47.080;22.214;2023-02-11T08:20:47;56.40;;;32.53;;
21802;SDS011;18591;47.080;22.214;2023-02-11T08:22:53;57.70;;;33.33;;
21802;SDS011;18591;47.080;22.214;2023-02-11T08:24:55;40.20;;;23.63;;
21802;SDS011;18591;47.080;22.214;2023-02-11T08:26:58;35.03;;;20.80;;
21802;SDS011;18591;47.080;22.214;2023-02-11T08:29:11;31.50;;;19.27;;
21802;SDS011;18591;47.080;22.214;2023-02-11T08:31:24;34.30;;;20.33;;
21802;SDS011;18591;47.080;22.214;2023-02-11T08:33:28;29.90;;;18.10;;
21802;SDS011;18591;47.080;22.214;2023-02-11T08:35:30;29.10;;;17.43;;
21802;SDS011;18591;47.080;22.214;2023-02-11T08:37:33;28.93;;;16.73;;
21802;SDS011;18591;47.080;22.214;2023-02-11T08:39:35;26.10;;;16.20;;
21802;SDS011;18591;47.080;22.214;2023-02-11T08:41:37;29.17;;;16.67;;
21802;SDS011;18591;47.080;22.214;2023-02-11T08:43:40;27.57;;;15.47;;
21802;SDS011;18591;47.080;22.214;2023-02-11T08:45:43;24.83;;;14.43;;
21802;SDS011;18591;47.080;22.214;2023-02-11T08:47:45;22.77;;;13.80;;
21802;SDS011;18591;47.080;22.214;2023-02-11T08:49:47;22.73;;;13.97;;
21802;SDS011;18591;47.080;22.214;2023-02-11T08:51:49;40.60;;;21.00;;
21802;SDS011;18591;47.080;22.214;2023-02-11T08:53:52;28.30;;;15.53;;
21802;SDS011;18591;47.080;22.214;2023-02-11T08:55:55;20.73;;;14.10;;
21802;SDS011;18591;47.080;22.214;2023-02-11T08:57:57;25.70;;;14.57;;
21802;SDS011;18591;47.080;22.214;2023-02-11T08:59:59;23.83;;;12.43;;
21802;SDS011;18591;47.080;22.214;2023-02-11T09:02:02;22.70;;;13.73;;
21802;SDS011;18591;47.080;22.214;2023-02-11T09:04:04;23.80;;;13.30;;
21802;SDS011;18591;47.080;22.214;2023-02-11T09:06:06;25.17;;;13.50;;
21802;SDS011;18591;47.080;22.214;2023-02-11T09:08:10;22.07;;;13.43;;
21802;SDS011;18591;47.080;22.214;2023-02-11T09:10:13;25.60;;;13.97;;
21802;SDS011;18591;47.080;22.214;2023-02-11T09:12:15;24.20;;;14.60;;
21802;SDS011;18591;47.080;22.214;2023-02-11T09:14:18;23.77;;;14.33;;
21802;SDS011;18591;47.080;22.214;2023-02-11T09:16:23;22.37;;;13.67;;
21802;SDS011;18591;47.080;22.214;2023-02-11T09:18:27;22.33;;;13.53;;
21802;SDS011;18591;47.080;22.214;2023-02-11T09:20:29;23.00;;;13.77;;
21802;SDS011;18591;47.080;22.214;2023-02-11T09:22:32;38.17;;;22.63;;
21802;SDS011;18591;47.080;22.214;2023-02-11T09:24:34;39.57;;;21.10;;
21802;SDS011;18591;47.080;22.214;2023-02-11T09:26:36;31.40;;;19.00;;
21802;SDS011;18591;47.080;22.214;2023-02-11T09:28:38;48.03;;;26.63;;
21802;SDS011;18591;47.080;22.214;2023-02-11T09:30:44;78.10;;;44.50;;
21802;SDS011;18591;47.080;22.214;2023-02-11T09:32:46;35.87;;;21.63;;
21802;SDS011;18591;47.080;22.214;2023-02-11T09:34:48;42.10;;;23.13;;
21802;SDS011;18591;47.080;22.214;2023-02-11T09:36:50;30.17;;;19.33;;
21802;SDS011;18591;47.080;22.214;2023-02-11T09:38:52;31.80;;;18.10;;
21802;SDS011;18591;47.080;22.214;2023-02-11T09:40:54;28.47;;;17.87;;
21802;SDS011;18591;47.080;22.214;2023-02-11T09:43:03;41.20;;;23.87;;
21802;SDS011;18591;47.080;22.214;2023-02-11T09:45:14;90.90;;;50.93;;
21802;SDS011;18591;47.080;22.214;2023-02-11T09:49:33;68.83;;;42.33;;
21802;SDS011;18591;47.080;22.214;2023-02-11T09:51:45;41.40;;;25.97;;
21802;SDS011;18591;47.080;22.214;2023-02-11T09:53:53;35.10;;;21.00;;
21802;SDS011;18591;47.080;22.214;2023-02-11T09:56:09;31.60;;;19.50;;
21802;SDS011;18591;47.080;22.214;2023-02-11T10:00:39;24.87;;;16.53;;
21802;SDS011;18591;47.080;22.214;2023-02-11T10:05:09;29.73;;;17.57;;
21802;SDS011;18591;47.080;22.214;2023-02-11T10:07:24;28.60;;;18.07;;
21802;SDS011;18591;47.080;22.214;2023-02-11T10:11:51;29.17;;;19.70;;
21802;SDS011;18591;47.080;22.214;2023-02-11T10:16:48;39.03;;;25.63;;
21802;SDS011;18591;47.080;22.214;2023-02-11T10:19:11;30.33;;;20.23;;
21802;SDS011;18591;47.080;22.214;2023-02-11T10:21:49;32.23;;;20.87;;
21802;SDS011;18591;47.080;22.214;2023-02-11T10:24:00;33.73;;;21.20;;
21802;SDS011;18591;47.080;22.214;2023-02-11T10:26:10;36.23;;;24.13;;
21802;SDS011;18591;47.080;22.214;2023-02-11T10:28:16;35.80;;;23.53;;
21802;SDS011;18591;47.080;22.214;2023-02-11T10:34:33;40.00;;;26.00;;
21802;SDS011;18591;47.080;22.214;2023-02-11T10:36:42;79.90;;;52.17;;
21802;SDS011;18591;47.080;22.214;2023-02-11T10:38:45;52.43;;;34.77;;
21802;SDS011;18591;47.080;22.214;2023-02-11T10:40:47;52.47;;;34.23;;
21802;SDS011;18591;47.080;22.214;2023-02-11T10:42:51;69.73;;;41.83;;
21802;SDS011;18591;47.080;22.214;2023-02-11T10:44:58;54.67;;;33.57;;
21802;SDS011;18591;47.080;22.214;2023-02-11T10:47:04;67.73;;;41.83;;
21802;SDS011;18591;47.080;22.214;2023-02-11T10:49:31;41.77;;;26.63;;
21802;SDS011;18591;47.080;22.214;2023-02-11T10:51:44;46.13;;;28.33;;
21802;SDS011;18591;47.080;22.214;2023-02-11T10:53:46;54.87;;;32.37;;
21802;SDS011;18591;47.080;22.214;2023-02-11T10:55:54;47.07;;;29.03;;
21802;SDS011;18591;47.080;22.214;2023-02-11T10:58:03;46.00;;;29.70;;
21802;SDS011;18591;47.080;22.214;2023-02-11T11:00:50;40.83;;;27.17;;
21802;SDS011;18591;47.080;22.214;2023-02-11T11:02:39;41.43;;;27.03;;
21802;SDS011;18591;47.080;22.214;2023-02-11T11:04:45;38.57;;;25.90;;
21802;SDS011;18591;47.080;22.214;2023-02-11T11:06:48;41.43;;;26.70;;
21802;SDS011;18591;47.080;22.214;2023-02-11T11:08:50;39.20;;;23.87;;
21802;SDS011;18591;47.080;22.214;2023-02-11T11:11:06;38.70;;;25.37;;
21802;SDS011;18591;47.080;22.214;2023-02-11T11:13:22;40.80;;;26.37;;
21802;SDS011;18591;47.080;22.214;2023-02-11T11:15:38;37.67;;;22.83;;
21802;SDS011;18591;47.080;22.214;2023-02-11T11:17:40;76.23;;;41.57;;
21802;SDS011;18591;47.080;22.214;2023-02-11T11:19:43;93.47;;;49.63;;
21802;SDS011;18591;47.080;22.214;2023-02-11T11:21:54;79.93;;;42.67;;
21802;SDS011;18591;47.080;22.214;2023-02-11T11:23:58;77.57;;;42.10;;
21802;SDS011;18591;47.080;22.214;2023-02-11T11:26:10;51.33;;;28.80;;
21802;SDS011;18591;47.080;22.214;2023-02-11T11:28:19;63.17;;;33.97;;
21802;SDS011;18591;47.080;22.214;2023-02-11T11:30:32;45.73;;;26.17;;
21802;SDS011;18591;47.080;22.214;2023-02-11T11:32:40;49.13;;;29.57;;
21802;SDS011;18591;47.080;22.214;2023-02-11T11:34:47;64.93;;;34.27;;
21802;SDS011;18591;47.080;22.214;2023-02-11T11:36:51;64.03;;;36.00;;
21802;SDS011;18591;47.080;22.214;2023-02-11T11:38:55;45.83;;;25.93;;
21802;SDS011;18591;47.080;22.214;2023-02-11T11:41:14;57.43;;;31.03;;
21802;SDS011;18591;47.080;22.214;2023-02-11T11:43:17;56.67;;;29.07;;
21802;SDS011;18591;47.080;22.214;2023-02-11T11:45:24;39.23;;;22.53;;
21802;SDS011;18591;47.080;22.214;2023-02-11T11:49:48;33.13;;;20.40;;
21802;SDS011;18591;47.080;22.214;2023-02-11T11:54:21;43.03;;;24.67;;
21802;SDS011;18591;47.080;22.214;2023-02-11T11:56:27;41.13;;;25.93;;
21802;SDS011;18591;47.080;22.214;2023-02-11T11:58:34;38.47;;;23.40;;
21802;SDS011;18591;47.080;22.214;2023-02-11T12:00:47;36.83;;;23.57;;
21802;SDS011;18591;47.080;22.214;2023-02-11T12:05:12;39.87;;;24.10;;
21802;SDS011;18591;47.080;22.214;2023-02-11T12:07:26;35.37;;;22.50;;
21802;SDS011;18591;47.080;22.214;2023-02-11T12:12:37;31.47;;;19.93;;
21802;SDS011;18591;47.080;22.214;2023-02-11T12:17:13;36.50;;;22.40;;
21802;SDS011;18591;47.080;22.214;2023-02-11T12:19:53;36.50;;;22.53;;
21802;SDS011;18591;47.080;22.214;2023-02-11T12:22:21;34.13;;;20.73;;
21802;SDS011;18591;47.080;22.214;2023-02-11T12:27:21;39.27;;;26.00;;
21802;SDS011;18591;47.080;22.214;2023-02-11T12:34:29;78.60;;;53.63;;
21802;SDS011;18591;47.080;22.214;2023-02-11T12:36:59;60.10;;;40.53;;
21802;SDS011;18591;47.080;22.214;2023-02-11T12:43:59;90.37;;;51.40;;
21802;SDS011;18591;47.080;22.214;2023-02-11T12:53:17;49.70;;;32.70;;
21802;SDS011;18591;47.080;22.214;2023-02-11T12:55:35;56.13;;;36.27;;
21802;SDS011;18591;47.080;22.214;2023-02-11T12:57:39;46.87;;;32.20;;
21802;SDS011;18591;47.080;22.214;2023-02-11T13:00:31;55.40;;;34.50;;
21802;SDS011;18591;47.080;22.214;2023-02-11T13:04:42;41.53;;;27.73;;
21802;SDS011;18591;47.080;22.214;2023-02-11T13:06:50;42.37;;;26.27;;
21802;SDS011;18591;47.080;22.214;2023-02-11T13:09:00;47.37;;;30.83;;
21802;SDS011;18591;47.080;22.214;2023-02-11T13:11:07;40.43;;;24.97;;
21802;SDS011;18591;47.080;22.214;2023-02-11T13:13:20;33.63;;;22.30;;
21802;SDS011;18591;47.080;22.214;2023-02-11T13:15:26;38.30;;;22.97;;
21802;SDS011;18591;47.080;22.214;2023-02-11T13:17:36;33.80;;;21.13;;
21802;SDS011;18591;47.080;22.214;2023-02-11T13:19:47;31.93;;;21.73;;
21802;SDS011;18591;47.080;22.214;2023-02-11T13:31:12;37.73;;;24.90;;
21802;SDS011;18591;47.080;22.214;2023-02-11T13:33:18;35.60;;;23.37;;
21802;SDS011;18591;47.080;22.214;2023-02-11T13:35:34;38.70;;;24.27;;
21802;SDS011;18591;47.080;22.214;2023-02-11T13:37:41;47.03;;;28.73;;
21802;SDS011;18591;47.080;22.214;2023-02-11T13:39:59;49.10;;;30.43;;